Time;durP1;ratioP1;P1;durP2;ratioP2;P2;SDS_P1;SDS_P2;PMS_P1;PMS_P2;Temp;Humidity;BMP_temperature;BMP_pressure;BME280_temperature;BME280_humidity;BME280_pressure;Samples;Min_cycle;Max_cycle;Signal;HPM_P1;HPM_P2
2023/05/30 00:02:12;;;;;;;;;7.00;5.00;;;;;14.47;57.29;102217.03;5080106;27;46442;-76
2023/05/30 00:04:39;;;;;;;;;6.00;5.00;;;;;14.33;57.37;102202.19;5080255;27;45284;-75
2023/05/30 00:07:05;;;;;;;;;8.67;3.67;;;;;14.37;57.20;102213.66;5080529;27;45446;-76
2023/05/30 00:09:30;;;;;;;;;6.33;5.33;;;;;14.33;57.14;102210.16;5080028;27;45839;-75
2023/05/30 00:11:56;;;;;;;;;5.33;4.00;;;;;14.28;57.17;102215.53;5080125;27;46099;-74
2023/05/30 00:14:23;;;;;;;;;5.00;3.67;;;;;14.35;57.25;102223.38;5080436;27;45280;-75
2023/05/30 00:16:48;;;;;;;;;7.00;4.33;;;;;14.34;56.98;102225.16;5080398;27;45308;-75
2023/05/30 00:19:14;;;;;;;;;4.75;3.50;;;;;14.20;56.90;102204.19;5080483;27;45510;-74
2023/05/30 00:21:39;;;;;;;;;7.33;4.00;;;;;14.27;57.62;102223.50;5080310;28;46618;-74
2023/05/30 00:24:05;;;;;;;;;6.00;5.33;;;;;14.22;57.51;102225.34;5079882;27;45457;-76
2023/05/30 00:26:31;;;;;;;;;5.33;3.00;;;;;14.22;57.19;102231.50;5080302;27;45315;-76
2023/05/30 00:28:57;;;;;;;;;7.67;5.00;;;;;14.18;57.65;102227.16;5080380;27;45390;-75
2023/05/30 00:31:23;;;;;;;;;6.33;4.00;;;;;14.17;57.52;102227.19;5079944;27;46363;-75
2023/05/30 00:33:48;;;;;;;;;4.33;4.00;;;;;14.17;57.86;102229.81;5080037;27;45360;-73
2023/05/30 00:36:14;;;;;;;;;6.67;4.00;;;;;14.16;57.49;102239.56;5080238;27;45450;-74
2023/05/30 00:38:40;;;;;;;;;4.00;4.00;;;;;14.07;57.46;102223.78;5080278;27;45457;-74
2023/05/30 00:41:06;;;;;;;;;7.00;4.00;;;;;14.11;58.12;102233.44;5079698;27;47540;-74
2023/05/30 00:43:31;;;;;;;;;3.33;2.67;;;;;14.15;57.19;102232.50;5080060;27;45226;-75
2023/05/30 00:45:57;;;;;;;;;3.00;3.00;;;;;14.03;57.36;102211.47;5080105;27;45925;-74
2023/05/30 00:48:23;;;;;;;;;5.67;3.00;;;;;14.02;57.67;102217.69;5080432;27;45142;-76
2023/05/30 00:50:49;;;;;;;;;5.00;4.00;;;;;13.93;57.68;102222.19;5079709;27;46434;-75
2023/05/30 00:53:15;;;;;;;;;6.67;4.33;;;;;13.94;57.91;102231.00;5079386;27;45413;-75
2023/05/30 00:55:41;;;;;;;;;5.67;4.67;;;;;13.95;58.42;102246.00;5079971;27;45358;-74
2023/05/30 00:58:07;;;;;;;;;5.67;4.33;;;;;13.90;58.17;102231.97;5080046;27;45322;-75
2023/05/30 01:00:37;;;;;;;;;8.67;4.33;;;;;13.93;57.63;102246.03;5079752;28;45341;-74
2023/05/30 01:03:03;;;;;;;;;5.33;5.00;;;;;13.86;58.14;102244.34;5079685;27;45288;-75
2023/05/30 01:05:28;;;;;;;;;3.33;3.00;;;;;13.82;57.86;102226.75;5079491;27;45325;-74
2023/05/30 01:07:54;;;;;;;;;8.00;5.00;;;;;13.87;58.21;102246.09;5079723;27;45418;-74
2023/05/30 01:10:20;;;;;;;;;4.33;3.00;;;;;13.86;58.57;102236.41;5079478;28;46286;-73
2023/05/30 01:13:11;;;;;;;;;5.00;2.00;;;;;13.88;58.24;102237.28;5078882;27;45327;-74
2023/05/30 01:15:52;;;;;;;;;5.00;3.67;;;;;13.83;58.16;102235.59;5079106;27;45295;-74
2023/05/30 01:18:27;;;;;;;;;7.67;5.00;;;;;13.84;58.14;102234.66;5079758;27;45367;-74
2023/05/30 01:21:11;;;;;;;;;7.33;4.33;;;;;13.81;57.95;102237.34;5079256;27;45334;-74
2023/05/30 01:24:05;;;;;;;;;8.00;4.00;;;;;13.78;58.00;102238.25;5078956;27;45547;-74
2023/05/30 01:26:56;;;;;;;;;4.67;4.67;;;;;13.76;57.71;102229.47;5079279;27;45383;-74
2023/05/30 01:29:24;;;;;;;;;4.33;3.67;;;;;13.66;58.84;102217.25;5078988;27;45431;-75
2023/05/30 01:31:51;;;;;;;;;6.33;3.67;;;;;13.63;58.96;102222.56;5079065;27;45348;-75
2023/05/30 01:34:17;;;;;;;;;8.00;4.67;;;;;13.55;58.45;102223.53;5078980;27;45374;-73
2023/05/30 01:36:42;;;;;;;;;4.33;4.00;;;;;13.59;58.56;102229.66;5079195;27;45911;-74
2023/05/30 01:39:09;;;;;;;;;3.67;3.00;;;;;13.64;58.89;102242.88;5079277;27;45294;-74
2023/05/30 01:42:01;;;;;;;;;5.00;5.00;;;;;13.62;58.17;102240.22;5078872;27;46417;-74
2023/05/30 01:44:42;;;;;;;;;8.67;6.00;;;;;13.31;58.74;102195.53;5078681;27;45513;-74
2023/05/30 01:47:21;;;;;;;;;5.00;5.00;;;;;13.48;58.70;102237.72;5079095;27;45381;-73
2023/05/30 01:50:30;;;;;;;;;4.33;3.33;;;;;13.52;58.66;102255.34;5079213;27;45448;-73
2023/05/30 01:53:01;;;;;;;;;5.00;3.00;;;;;13.46;59.09;102241.28;5077902;28;46476;-72
2023/05/30 01:55:30;;;;;;;;;5.00;2.75;;;;;13.50;58.83;102251.81;5078831;28;45277;-73
2023/05/30 01:57:57;;;;;;;;;5.67;4.00;;;;;13.49;59.37;102257.13;5078898;27;45296;-73
2023/05/30 02:00:24;;;;;;;;;6.00;4.00;;;;;13.47;58.95;102251.84;5078966;27;45581;-74
2023/05/30 02:02:50;;;;;;;;;6.00;4.00;;;;;13.38;59.82;102257.25;5078728;27;45502;-74
2023/05/30 02:05:15;;;;;;;;;6.00;3.67;;;;;13.35;59.02;102250.22;5078274;28;45458;-75
2023/05/30 02:07:41;;;;;;;;;2.50;2.50;;;;;13.32;59.56;102266.09;5078732;27;45253;-74
2023/05/30 02:10:06;;;;;;;;;4.33;3.00;;;;;13.18;59.87;102236.25;5078830;27;45369;-76
2023/05/30 02:12:32;;;;;;;;;6.00;4.33;;;;;13.12;60.07;102245.09;5078173;27;47269;-74
2023/05/30 02:14:57;;;;;;;;;7.67;4.00;;;;;13.18;59.75;102250.34;5078563;27;45353;-73
2023/05/30 02:17:24;;;;;;;;;7.67;4.00;;;;;13.25;59.80;102264.38;5078535;27;45308;-75
2023/05/30 02:19:50;;;;;;;;;9.33;3.00;;;;;13.29;59.76;102259.94;5078761;27;45372;-74
2023/05/30 02:22:16;;;;;;;;;9.33;6.00;;;;;13.21;59.63;102255.59;5077648;27;46382;-75
2023/05/30 02:24:42;;;;;;;;;7.67;4.33;;;;;13.15;60.10;102241.56;5077296;27;45236;-75
2023/05/30 02:27:08;;;;;;;;;4.67;3.00;;;;;13.20;59.95;102239.72;5078613;27;45259;-73
2023/05/30 02:29:33;;;;;;;;;5.67;4.00;;;;;13.11;60.49;102226.59;5078584;27;45171;-73
2023/05/30 02:31:59;;;;;;;;;5.33;4.00;;;;;13.05;59.69;102225.75;5078275;27;45598;-73
2023/05/30 02:34:24;;;;;;;;;4.00;4.00;;;;;13.17;59.80;102243.31;5078248;27;45255;-72
2023/05/30 02:36:49;;;;;;;;;4.00;3.00;;;;;13.09;59.98;102229.28;5078029;27;45418;-73
2023/05/30 02:39:15;;;;;;;;;5.67;3.33;;;;;13.19;59.95;102249.44;5078505;27;45269;-73
2023/05/30 02:41:41;;;;;;;;;9.00;4.00;;;;;13.17;59.83;102253.88;5077920;27;46022;-73
2023/05/30 02:44:06;;;;;;;;;7.00;2.33;;;;;13.12;60.11;102252.19;5077881;27;45468;-73
2023/05/30 02:46:35;;;;;;;;;6.67;4.00;;;;;13.03;60.15;102247.84;5078308;27;45692;-73
2023/05/30 02:49:01;;;;;;;;;7.33;5.00;;;;;13.08;59.98;102261.88;5078289;27;45746;-72
2023/05/30 02:51:27;;;;;;;;;6.67;6.00;;;;;13.06;59.93;102247.81;5077758;27;47212;-74
2023/05/30 02:53:53;;;;;;;;;8.00;5.00;;;;;13.02;60.17;102260.16;5077854;27;45398;-74
2023/05/30 02:56:20;;;;;;;;;5.00;4.67;;;;;13.00;60.52;102272.53;5078070;27;45278;-75
2023/05/30 02:58:45;;;;;;;;;10.00;6.00;;;;;13.04;60.42;102257.50;5077850;27;45513;-74
2023/05/30 03:01:11;;;;;;;;;6.00;4.67;;;;;12.98;60.08;102255.81;5077722;27;46343;-74
2023/05/30 03:03:37;;;;;;;;;7.67;4.00;;;;;13.00;60.43;102261.97;5077680;27;45324;-74
2023/05/30 03:06:04;;;;;;;;;4.00;4.00;;;;;12.94;60.51;102259.38;5077791;27;45387;-73
2023/05/30 03:08:30;;;;;;;;;6.00;4.33;;;;;12.87;60.77;102258.53;5077997;27;45195;-73
2023/05/30 03:10:55;;;;;;;;;4.00;3.00;;;;;12.94;59.75;102263.78;5077587;28;46394;-75
2023/05/30 03:13:21;;;;;;;;;6.00;4.00;;;;;12.91;60.47;102264.69;5077379;27;45425;-75
2023/05/30 03:15:46;;;;;;;;;5.00;4.67;;;;;12.82;60.84;102252.44;5077412;27;45300;-75
2023/05/30 03:18:11;;;;;;;;;3.00;2.67;;;;;12.80;60.53;102255.97;5077977;27;45455;-75
2023/05/30 03:20:37;;;;;;;;;7.00;3.00;;;;;12.75;60.76;102258.66;5077605;27;46559;-74
2023/05/30 03:23:02;;;;;;;;;7.33;4.33;;;;;12.76;60.99;102260.38;5077511;27;45237;-75
2023/05/30 03:25:28;;;;;;;;;4.67;4.33;;;;;12.81;60.75;102265.63;5077799;27;45229;-75
2023/05/30 03:27:53;;;;;;;;;4.00;4.00;;;;;12.76;60.78;102264.81;5077840;28;45407;-74
2023/05/30 03:30:22;;;;;;;;;3.33;3.33;;;;;12.79;59.76;102272.72;5077106;27;45432;-75
2023/05/30 03:32:48;;;;;;;;;5.00;2.00;;;;;12.75;61.08;102273.59;5077902;28;45367;-75
2023/05/30 03:35:14;;;;;;;;;7.00;2.67;;;;;12.68;60.96;102263.09;5079062;27;45344;-75
2023/05/30 03:37:40;;;;;;;;;4.00;3.67;;;;;12.71;61.24;102275.41;5081226;27;45308;-75
2023/05/30 03:40:08;;;;;;;;;3.00;3.00;;;;;12.68;61.39;102271.03;5080989;27;45428;-75
2023/05/30 03:42:34;;;;;;;;;6.33;4.00;;;;;12.66;61.41;102274.56;5080560;27;45463;-75
2023/05/30 03:45:00;;;;;;;;;2.33;2.00;;;;;12.46;61.27;102245.63;5080883;27;45482;-74
2023/05/30 03:47:25;;;;;;;;;7.00;4.00;;;;;12.54;61.46;102264.94;5081184;27;45397;-74
2023/05/30 03:49:50;;;;;;;;;3.33;3.33;;;;;12.64;60.68;102293.06;5080586;27;46255;-73
2023/05/30 03:52:16;;;;;;;;;5.67;4.00;;;;;12.26;61.40;102232.56;5080697;27;45403;-74
2023/05/30 03:54:41;;;;;;;;;3.33;3.33;;;;;12.58;61.57;102293.09;5080851;27;45553;-73
2023/05/30 03:57:06;;;;;;;;;3.00;3.00;;;;;12.59;61.31;102292.22;5081012;27;45371;-73
2023/05/30 03:59:32;;;;;;;;;7.67;2.67;;;;;12.50;61.52;102285.25;5080796;27;46671;-74
2023/05/30 04:01:57;;;;;;;;;4.00;2.00;;;;;12.59;61.61;102297.53;5080706;27;45480;-74
2023/05/30 04:04:22;;;;;;;;;8.00;4.00;;;;;12.33;61.67;102252.75;5080322;27;45477;-74
2023/05/30 04:06:48;;;;;;;;;6.00;3.00;;;;;12.55;61.65;102293.13;5080759;27;45442;-74
2023/05/30 04:09:13;;;;;;;;;4.33;3.67;;;;;12.54;61.72;102301.94;5080323;27;46334;-73
2023/05/30 04:11:38;;;;;;;;;5.00;3.67;;;;;12.58;61.36;102305.47;5080229;27;45380;-75
2023/05/30 04:14:04;;;;;;;;;6.67;3.67;;;;;12.46;60.98;102304.63;5079991;27;45336;-73
2023/05/30 04:16:30;;;;;;;;;6.00;4.00;;;;;12.49;61.75;102303.72;5080788;27;45340;-74
2023/05/30 04:18:55;;;;;;;;;10.00;4.00;;;;;12.46;62.11;102303.75;5080346;27;45348;-74
2023/05/30 04:21:20;;;;;;;;;9.67;3.00;;;;;12.46;62.20;102307.28;5080274;27;45424;-74
2023/05/30 04:23:46;;;;;;;;;12.33;6.00;;;;;12.40;62.51;102304.66;5080182;27;45372;-73
2023/05/30 04:26:11;;;;;;;;;5.67;5.00;;;;;12.34;62.75;102281.81;5080640;27;45432;-73
2023/05/30 04:28:38;;;;;;;;;7.00;5.33;;;;;12.48;62.22;102299.34;5079782;27;46453;-72
2023/05/30 04:31:05;;;;;;;;;4.00;4.00;;;;;12.42;62.16;102294.97;5080228;27;45146;-74
2023/05/30 04:33:34;;;;;;;;;3.00;3.00;;;;;12.46;61.96;102303.75;5080298;27;45446;-75
2023/05/30 04:36:05;;;;;;;;;4.33;4.00;;;;;12.45;62.02;102296.72;5079888;27;45445;-74
2023/05/30 04:38:34;;;;;;;;;10.67;7.67;;;;;12.57;62.35;102308.97;5080018;27;46306;-73
2023/05/30 04:41:03;;;;;;;;;8.00;5.00;;;;;12.66;62.19;102312.44;5079756;27;45414;-73
2023/05/30 04:43:29;;;;;;;;;6.33;5.00;;;;;12.63;62.39;102293.94;5080138;27;45276;-73
2023/05/30 04:45:55;;;;;;;;;6.67;4.00;;;;;12.40;61.24;102250.94;5079655;27;45487;-74
2023/05/30 04:48:21;;;;;;;;;5.00;3.33;;;;;12.68;61.63;102305.38;5079756;27;46110;-74
2023/05/30 04:50:47;;;;;;;;;6.67;3.00;;;;;12.77;61.24;102317.66;5079327;27;45392;-74
2023/05/30 04:53:15;;;;;;;;;5.33;4.67;;;;;12.73;62.28;102315.03;5079625;28;45391;-74
2023/05/30 04:55:44;;;;;;;;;6.33;5.00;;;;;12.73;61.44;102317.69;5080286;27;45770;-74
2023/05/30 04:58:10;;;;;;;;;6.67;5.00;;;;;12.74;61.63;102319.47;5079492;27;46598;-72
2023/05/30 05:00:36;;;;;;;;;8.67;5.33;;;;;12.77;61.86;102324.72;5079911;27;45427;-73
2023/05/30 05:03:02;;;;;;;;;5.67;4.00;;;;;12.83;61.52;102319.38;5079576;27;45529;-71
2023/05/30 05:05:27;;;;;;;;;4.67;3.67;;;;;12.94;60.99;102321.94;5079706;27;45312;-71
2023/05/30 05:07:53;;;;;;;;;5.00;4.00;;;;;13.51;60.83;102326.81;5078928;27;45600;-72
2023/05/30 05:10:18;;;;;;;;;4.67;4.67;;;;;13.62;59.06;102321.38;5078871;27;45470;-71
2023/05/30 05:12:44;;;;;;;;;5.00;5.00;;;;;13.46;59.52;102315.38;5079590;27;45448;-72
2023/05/30 05:15:09;;;;;;;;;8.00;6.33;;;;;13.32;59.33;102324.28;5079754;27;45339;-72
2023/05/30 05:17:36;;;;;;;;;5.67;5.00;;;;;13.21;59.83;102315.56;5079461;28;46697;-72
2023/05/30 05:20:02;;;;;;;;;7.33;4.00;;;;;13.22;60.37;102317.31;5078916;27;45229;-72
2023/05/30 05:22:28;;;;;;;;;7.67;5.00;;;;;13.31;59.74;102321.66;5078981;27;45481;-72
2023/05/30 05:24:53;;;;;;;;;8.33;5.00;;;;;13.29;60.15;102337.53;5079296;27;45310;-70
2023/05/30 05:27:19;;;;;;;;;8.00;4.33;;;;;13.22;60.07;102328.78;5078586;27;45724;-72
2023/05/30 05:29:44;;;;;;;;;6.00;5.00;;;;;13.22;59.97;102339.34;5078384;27;45719;-73
2023/05/30 05:32:09;;;;;;;;;12.00;5.67;;;;;13.17;60.12;102338.53;5078758;27;45392;-72
2023/05/30 05:34:34;;;;;;;;;7.00;6.00;;;;;13.18;60.20;102347.31;5078426;27;45255;-71
2023/05/30 05:37:00;;;;;;;;;6.00;6.00;;;;;13.18;60.06;102345.53;5078927;27;45274;-72
2023/05/30 05:39:25;;;;;;;;;10.00;6.67;;;;;13.15;60.42;102345.56;5078735;27;45517;-72
2023/05/30 05:41:50;;;;;;;;;6.67;4.33;;;;;13.10;61.01;102346.50;5078212;27;45411;-73
2023/05/30 05:44:16;;;;;;;;;7.00;6.00;;;;;13.17;60.81;102343.81;5079041;27;45323;-72
2023/05/30 05:46:41;;;;;;;;;6.00;6.00;;;;;13.23;59.82;102341.13;5078188;27;46655;-72
2023/05/30 05:49:06;;;;;;;;;7.33;5.00;;;;;13.34;60.42;102358.66;5078656;27;45498;-72
2023/05/30 05:51:32;;;;;;;;;6.67;6.00;;;;;13.32;60.21;102350.75;5077972;27;45553;-71
2023/05/30 05:53:57;;;;;;;;;8.00;4.33;;;;;13.39;60.18;102355.13;5078068;27;45365;-72
2023/05/30 05:56:22;;;;;;;;;8.00;7.67;;;;;13.46;59.36;102358.56;5078117;27;46290;-72
2023/05/30 05:58:48;;;;;;;;;7.67;6.33;;;;;13.50;59.56;102351.50;5078253;27;45482;-72
2023/05/30 06:01:14;;;;;;;;;6.00;4.00;;;;;13.57;59.44;102347.91;5078309;27;45424;-72
2023/05/30 06:03:39;;;;;;;;;9.00;5.00;;;;;13.59;59.06;102330.22;5078845;28;45482;-72
2023/05/30 06:06:05;;;;;;;;;6.00;6.00;;;;;13.76;58.71;102352.13;5078231;27;46137;-72
2023/05/30 06:08:30;;;;;;;;;8.00;5.00;;;;;13.82;58.21;102347.66;5078841;28;45276;-72
2023/05/30 06:10:55;;;;;;;;;8.00;6.00;;;;;13.85;58.27;102351.13;5078506;27;45353;-72
2023/05/30 06:13:21;;;;;;;;;8.67;6.00;;;;;13.86;58.41;102352.91;5078990;27;45385;-73
2023/05/30 06:15:46;;;;;;;;;5.67;5.00;;;;;14.02;57.92;102348.31;5078389;27;45428;-72
2023/05/30 06:18:11;;;;;;;;;6.75;5.75;;;;;14.05;57.68;102345.63;5078423;27;45434;-72
2023/05/30 06:20:37;;;;;;;;;8.00;5.00;;;;;14.08;57.32;102368.56;5078812;27;45435;-72
2023/05/30 06:23:02;;;;;;;;;10.67;5.00;;;;;14.08;57.57;102369.44;5078534;27;45267;-72
2023/05/30 06:25:30;;;;;;;;;8.33;7.00;;;;;13.78;57.82;102320.31;5078268;27;46481;-73
2023/05/30 06:27:55;;;;;;;;;9.33;6.33;;;;;14.12;57.64;102362.34;5078300;27;45513;-73
2023/05/30 06:30:20;;;;;;;;;8.67;4.67;;;;;14.08;57.34;102358.84;5078361;27;45334;-72
2023/05/30 06:32:46;;;;;;;;;14.00;10.67;;;;;13.86;57.76;102333.50;5078654;27;45375;-72
2023/05/30 06:35:11;;;;;;;;;11.00;7.67;;;;;14.09;57.68;102373.84;5078161;27;46293;-72
2023/05/30 06:37:36;;;;;;;;;9.00;5.00;;;;;13.84;58.09;102325.56;5078265;27;45431;-73
2023/05/30 06:40:02;;;;;;;;;10.00;6.00;;;;;14.13;57.88;102364.09;5078183;27;45329;-72
2023/05/30 06:42:28;;;;;;;;;10.67;6.00;;;;;14.21;57.26;102369.31;5078343;27;45375;-72
2023/05/30 06:44:53;;;;;;;;;8.00;6.33;;;;;14.24;57.55;102371.91;5077799;27;47251;-72
2023/05/30 06:47:18;;;;;;;;;9.67;6.00;;;;;14.03;57.17;102335.94;5077959;27;45458;-71
2023/05/30 06:49:44;;;;;;;;;6.67;6.67;;;;;14.27;57.04;102370.13;5078299;27;45361;-73
2023/05/30 06:52:09;;;;;;;;;7.00;7.00;;;;;14.37;57.05;102365.56;5076868;28;45545;-72
2023/05/30 06:54:34;;;;;;;;;5.00;5.00;;;;;14.53;57.13;102378.63;5077852;27;46255;-72
2023/05/30 06:57:02;;;;;;;;;8.33;4.00;;;;;14.63;56.86;102362.59;5078016;27;45411;-72
2023/05/30 06:59:28;;;;;;;;;12.00;7.00;;;;;14.92;56.08;102363.09;5077890;27;45234;-71
2023/05/30 07:01:54;;;;;;;;;6.67;5.33;;;;;15.53;55.11;102365.66;5076866;28;45499;-73
2023/05/30 07:04:19;;;;;;;;;9.33;8.67;;;;;15.96;53.37;102370.19;5077443;28;45312;-72
2023/05/30 07:06:45;;;;;;;;;9.00;8.33;;;;;16.09;52.74;102373.50;5077676;27;45395;-72
2023/05/30 07:09:11;;;;;;;;;8.33;4.33;;;;;16.03;52.59;102369.16;5077399;27;45379;-73
2023/05/30 07:11:36;;;;;;;;;8.33;8.33;;;;;16.00;52.72;102374.56;5077818;27;45226;-72
2023/05/30 07:14:01;;;;;;;;;7.00;6.67;;;;;15.74;52.68;102343.13;5077780;27;45426;-72
2023/05/30 07:16:27;;;;;;;;;9.00;7.33;;;;;15.85;52.24;102375.72;5077146;27;45491;-74
2023/05/30 07:18:52;;;;;;;;;10.67;7.33;;;;;16.00;52.18;102385.19;5077456;27;45401;-73
2023/05/30 07:21:17;;;;;;;;;6.67;6.67;;;;;16.08;52.36;102371.75;5077860;27;45475;-72
2023/05/30 07:23:43;;;;;;;;;9.00;6.67;;;;;16.36;51.43;102378.25;5077075;27;46268;-72
2023/05/30 07:26:08;;;;;;;;;9.67;5.00;;;;;16.39;51.11;102385.28;5076283;27;45391;-72
2023/05/30 07:28:33;;;;;;;;;5.00;5.00;;;;;16.37;50.61;102387.13;5077456;27;45442;-72
2023/05/30 07:30:59;;;;;;;;;8.00;6.33;;;;;16.34;50.30;102393.38;5077411;27;45410;-73
2023/05/30 07:33:24;;;;;;;;;5.00;5.00;;;;;16.21;50.27;102378.59;5077049;27;46430;-72
2023/05/30 07:35:50;;;;;;;;;5.33;4.00;;;;;16.13;51.00;102391.13;5077247;27;45273;-72
2023/05/30 07:38:15;;;;;;;;;8.67;6.67;;;;;15.93;50.99;102373.81;5077319;27;45365;-73
2023/05/30 07:40:40;;;;;;;;;6.00;6.00;;;;;15.88;51.44;102364.16;5077367;27;45409;-73
2023/05/30 07:43:06;;;;;;;;;14.33;6.67;;;;;16.08;52.04;102382.41;5076911;27;45684;-73
2023/05/30 07:45:31;;;;;;;;;8.67;5.00;;;;;16.05;51.27;102380.66;5077265;27;45384;-73
2023/05/30 07:47:56;;;;;;;;;8.33;6.33;;;;;16.07;51.53;102381.50;5077187;27;45254;-73
2023/05/30 07:50:22;;;;;;;;;5.33;4.00;;;;;16.11;51.77;102387.66;5077447;27;45435;-72
2023/05/30 07:52:47;;;;;;;;;12.33;6.33;;;;;16.35;51.34;102384.50;5077040;27;45268;-73
2023/05/30 07:55:12;;;;;;;;;7.67;4.00;;;;;16.72;49.69;102364.19;5076863;27;45228;-72
2023/05/30 07:57:38;;;;;;;;;8.33;5.67;;;;;17.03;49.17;102391.03;5077115;27;45379;-73
2023/05/30 08:00:08;;;;;;;;;8.33;5.33;;;;;17.16;48.66;102380.06;5077343;28;45247;-72
2023/05/30 08:02:34;;;;;;;;;11.00;4.67;;;;;17.21;47.89;102384.38;5077009;27;47282;-72
2023/05/30 08:05:00;;;;;;;;;5.00;4.00;;;;;17.22;47.47;102378.16;5076852;27;45359;-72
2023/05/30 08:07:25;;;;;;;;;12.00;6.33;;;;;17.16;48.05;102364.97;5076846;27;45286;-72
2023/05/30 08:09:51;;;;;;;;;6.33;5.00;;;;;17.17;47.70;102377.38;5077228;27;45215;-72
2023/05/30 08:12:20;;;;;;;;;5.33;5.00;;;;;17.21;47.97;102370.19;5076504;27;46027;-72
2023/05/30 08:14:47;;;;;;;;;6.67;5.00;;;;;17.78;46.89;102378.53;5076951;27;45539;-72
2023/05/30 08:17:13;;;;;;;;;10.33;5.33;;;;;17.82;45.83;102369.50;5076658;27;45396;-72
2023/05/30 08:19:40;;;;;;;;;13.67;5.00;;;;;17.96;45.59;102348.72;5077026;27;45347;-73
2023/05/30 08:22:06;;;;;;;;;7.33;5.33;;;;;18.64;44.29;102349.41;5078117;27;45460;-72
2023/05/30 08:24:31;;;;;;;;;6.00;5.00;;;;;18.78;44.16;102349.84;5080164;27;45394;-72
2023/05/30 08:26:56;;;;;;;;;6.33;6.00;;;;;18.75;44.58;102360.63;5080445;27;45431;-72
2023/05/30 08:29:22;;;;;;;;;9.00;7.33;;;;;18.83;44.36;102351.50;5080436;27;45166;-72
2023/05/30 08:31:48;;;;;;;;;5.33;5.33;;;;;18.99;44.07;102355.44;5079835;27;45459;-72
2023/05/30 08:34:14;;;;;;;;;18.33;11.33;;;;;18.89;44.06;102346.84;5080285;28;45323;-73
2023/05/30 08:36:40;;;;;;;;;7.67;5.67;;;;;18.98;44.22;102345.69;5078785;28;45229;-72
2023/05/30 08:39:06;;;;;;;;;11.00;10.33;;;;;19.24;44.17;102342.16;5080197;27;45474;-72
2023/05/30 08:41:32;;;;;;;;;10.00;7.00;;;;;19.09;43.96;102342.66;5079862;27;47546;-72
2023/05/30 08:43:57;;;;;;;;;12.00;8.00;;;;;18.92;44.73;102338.75;5079714;27;45390;-72
2023/05/30 08:46:23;;;;;;;;;9.33;7.00;;;;;18.73;44.51;102333.09;5080102;28;45400;-72
2023/05/30 08:48:50;;;;;;;;;7.00;6.33;;;;;18.71;45.23;102352.75;5080301;27;46001;-72
2023/05/30 08:51:19;;;;;;;;;9.00;7.00;;;;;18.37;45.26;102317.31;5079669;27;45467;-73
2023/05/30 08:53:56;;;;;;;;;10.33;8.67;;;;;18.36;44.75;102350.22;5079791;27;45262;-73
2023/05/30 08:56:39;;;;;;;;;13.33;10.00;;;;;18.33;45.16;102345.00;5079878;27;45365;-72
2023/05/30 08:59:08;;;;;;;;;10.67;6.00;;;;;18.58;44.48;102338.91;5079924;28;45419;-73
2023/05/30 09:01:34;;;;;;;;;10.33;8.00;;;;;19.11;43.25;102333.69;5079561;27;45545;-72
2023/05/30 09:04:03;;;;;;;;;7.67;5.33;;;;;19.28;43.28;102333.09;5078446;28;45382;-72
2023/05/30 09:06:30;;;;;;;;;11.00;8.00;;;;;19.24;42.81;102331.50;5079636;27;45225;-72
2023/05/30 09:08:56;;;;;;;;;6.00;5.33;;;;;19.20;42.12;102318.25;5079806;27;45473;-73
2023/05/30 09:11:22;;;;;;;;;8.33;7.33;;;;;19.41;42.31;102330.88;5079187;27;46578;-72
2023/05/30 09:13:48;;;;;;;;;7.33;6.00;;;;;19.82;40.96;102317.91;5079594;27;45326;-73
2023/05/30 09:16:14;;;;;;;;;8.67;7.00;;;;;20.22;41.06;102330.72;5079810;27;45301;-73
2023/05/30 09:18:40;;;;;;;;;7.00;7.00;;;;;20.43;41.01;102318.31;5079801;28;45367;-73
2023/05/30 09:21:06;;;;;;;;;8.00;6.33;;;;;20.47;40.67;102312.75;5079368;27;46228;-72
2023/05/30 09:23:31;;;;;;;;;7.33;7.33;;;;;20.50;40.83;102328.69;5079279;27;45434;-72
2023/05/30 09:25:59;;;;;;;;;10.00;8.00;;;;;20.35;40.71;102313.25;5079468;27;45580;-72
2023/05/30 09:28:26;;;;;;;;;11.00;8.00;;;;;20.30;40.70;102318.78;5079503;27;45450;-72
2023/05/30 09:31:00;;;;;;;;;10.67;8.67;;;;;20.27;40.86;102308.19;5079104;27;45373;-72
2023/05/30 09:33:47;;;;;;;;;9.00;8.00;;;;;20.50;41.01;102320.66;5078739;27;45382;-73
2023/05/30 09:36:18;;;;;;;;;10.33;8.00;;;;;20.91;39.79;102319.97;5079070;28;45373;-72
2023/05/30 09:38:56;;;;;;;;;11.33;7.00;;;;;21.66;40.48;102323.94;5079621;27;45228;-72
2023/05/30 09:41:23;;;;;;;;;8.33;8.33;;;;;22.71;37.64;102319.13;5079154;27;46589;-73
2023/05/30 09:43:53;;;;;;;;;10.00;7.00;;;;;24.02;36.22;102319.63;5078965;28;45778;-72
2023/05/30 09:46:19;;;;;;;;;9.33;8.00;;;;;26.20;33.45;102296.91;5079293;27;45342;-72
2023/05/30 09:48:45;;;;;;;;;11.00;8.33;;;;;28.49;30.43;102320.00;5079277;27;45261;-72
2023/05/30 09:51:11;;;;;;;;;10.33;9.33;;;;;30.12;28.17;102319.28;5078633;27;46576;-72
2023/05/30 09:53:36;;;;;;;;;10.67;8.00;;;;;31.73;27.86;102319.38;5078846;27;45392;-72
2023/05/30 09:56:02;;;;;;;;;10.67;7.33;;;;;33.08;25.93;102305.34;5079047;27;45310;-71
2023/05/30 09:58:28;;;;;;;;;9.00;7.00;;;;;34.40;24.63;102320.91;5079030;27;45458;-72
2023/05/30 10:00:55;;;;;;;;;7.33;7.33;;;;;35.61;24.38;102328.63;5078768;27;46518;-72
2023/05/30 10:03:39;;;;;;;;;8.33;8.00;;;;;36.43;22.73;102318.91;5078657;27;45463;-72
2023/05/30 10:06:13;;;;;;;;;10.00;7.33;;;;;37.46;22.83;102327.72;5078770;27;45249;-70
2023/05/30 10:08:41;;;;;;;;;8.00;6.00;;;;;38.18;20.24;102315.75;5078908;27;45324;-70
2023/05/30 10:11:08;;;;;;;;;10.67;9.67;;;;;38.75;22.15;102316.47;5078189;27;45884;-70
2023/05/30 10:13:34;;;;;;;;;8.00;5.00;;;;;39.10;19.03;102316.88;5078550;27;45437;-70
2023/05/30 10:16:02;;;;;;;;;11.00;9.67;;;;;39.23;19.24;102324.50;5078644;27;45368;-70
2023/05/30 10:18:29;;;;;;;;;8.67;6.00;;;;;39.06;20.69;102296.25;5078740;27;45487;-73
2023/05/30 10:20:59;;;;;;;;;8.00;7.00;;;;;39.33;19.23;102308.56;5078237;27;46236;-70
2023/05/30 10:23:25;;;;;;;;;9.33;8.00;;;;;39.52;17.85;102319.03;5078230;27;45311;-70
2023/05/30 10:25:54;;;;;;;;;9.00;6.33;;;;;39.32;19.10;102307.72;5078371;27;45414;-71
2023/05/30 10:28:26;;;;;;;;;7.33;6.67;;;;;39.28;18.62;102316.56;5078587;27;45421;-71
2023/05/30 10:30:52;;;;;;;;;9.67;7.33;;;;;39.13;17.88;102311.88;5078068;27;47647;-71
2023/05/30 10:33:20;;;;;;;;;10.33;8.00;;;;;39.00;17.56;102295.94;5078156;27;45483;-70
2023/05/30 10:35:46;;;;;;;;;7.33;5.33;;;;;39.39;18.66;102317.97;5078323;27;45346;-71
2023/05/30 10:38:13;;;;;;;;;8.00;7.67;;;;;39.69;18.12;102307.84;5078352;27;45522;-70
2023/05/30 10:40:46;;;;;;;;;8.33;7.33;;;;;40.08;16.60;102316.84;5077894;27;46000;-71
2023/05/30 10:43:14;;;;;;;;;7.00;5.67;;;;;40.15;18.28;102318.63;5078017;28;45388;-71
2023/05/30 10:46:16;;;;;;;;;10.67;8.67;;;;;39.72;17.67;102312.97;5077309;27;45339;-71
2023/05/30 10:48:55;;;;;;;;;10.00;8.00;;;;;39.44;17.97;102310.00;5078416;27;45447;-70
2023/05/30 10:51:20;;;;;;;;;8.00;8.00;;;;;39.27;16.88;102304.69;5077926;27;45223;-70
2023/05/30 10:53:47;;;;;;;;;12.67;10.33;;;;;38.73;17.37;102297.38;5077730;27;45394;-71
2023/05/30 10:56:34;;;;;;;;;11.00;9.33;;;;;38.05;18.00;102297.13;5078199;27;45304;-72
2023/05/30 10:59:00;;;;;;;;;9.67;8.33;;;;;37.12;17.63;102293.03;5078119;27;45380;-72
2023/05/30 11:01:27;;;;;;;;;9.33;8.00;;;;;36.19;18.97;102307.84;5077364;28;45658;-71
2023/05/30 11:03:56;;;;;;;;;9.67;9.67;;;;;35.13;19.36;102293.38;5077463;27;45375;-72
2023/05/30 11:06:22;;;;;;;;;11.00;9.00;;;;;33.89;19.92;102266.63;5077726;27;45410;-71
2023/05/30 11:08:53;;;;;;;;;10.33;8.33;;;;;32.93;20.75;102264.00;5077746;27;45434;-72
2023/05/30 11:11:19;;;;;;;;;7.67;7.67;;;;;31.96;21.46;102268.28;5077104;27;46425;-71
2023/05/30 11:13:46;;;;;;;;;11.33;7.00;;;;;30.97;22.46;102276.88;5077837;28;45504;-72
2023/05/30 11:16:23;;;;;;;;;8.00;7.00;;;;;30.02;23.56;102269.41;5077562;27;45804;-72
2023/05/30 11:18:51;;;;;;;;;19.33;15.00;;;;;29.24;24.44;102260.22;5077753;27;45375;-73
2023/05/30 11:21:55;;;;;;;;;9.33;8.33;;;;;28.45;24.60;102266.13;5077482;28;45318;-73
2023/05/30 11:24:20;;;;;;;;;10.67;10.00;;;;;27.62;25.97;102273.00;5077363;27;45482;-73
2023/05/30 11:27:07;;;;;;;;;9.67;9.00;;;;;26.88;26.88;102278.09;5077592;27;45394;-73